Time;durP1;ratioP1;P1;durP2;ratioP2;P2;SDS_P1;SDS_P2;PMS_P1;PMS_P2;Temp;Humidity;BMP_temperature;BMP_pressure;BME280_temperature;BME280_humidity;BME280_pressure;Samples;Min_cycle;Max_cycle;Signal;HPM_P1;HPM_P2
2024/03/24 00:00:24;;;;;;;6.20;2.00;;;;;;;;;;5092466;28;20286;-79
2024/03/24 00:02:51;;;;;;;7.07;2.10;;;;;;;;;;5093211;28;20199;-79
2024/03/24 00:05:18;;;;;;;7.10;1.73;;;;;;;;;;5092615;28;20286;-78
2024/03/24 00:07:46;;;;;;;7.23;1.40;;;;;;;;;;5092333;28;20206;-80
2024/03/24 00:10:13;;;;;;;9.83;2.13;;;;;;;;;;5092733;28;20226;-78
2024/03/24 00:12:40;;;;;;;10.67;2.07;;;;;;;;;;5092442;28;20204;-78
2024/03/24 00:15:06;;;;;;;8.20;1.80;;;;;;;;;;5092739;28;20260;-78
2024/03/24 00:17:33;;;;;;;7.27;2.20;;;;;;;;;;5092281;28;20198;-78
2024/03/24 00:20:00;;;;;;;4.80;1.40;;;;;;;;;;5091969;28;20289;-79
2024/03/24 00:22:28;;;;;;;7.20;1.67;;;;;;;;;;5091997;28;20207;-79
2024/03/24 00:24:55;;;;;;;6.90;1.63;;;;;;;;;;5092134;28;20261;-79
2024/03/24 00:27:22;;;;;;;6.77;1.70;;;;;;;;;;5092420;28;20198;-79
2024/03/24 00:29:48;;;;;;;8.00;2.13;;;;;;;;;;5092015;28;20293;-78
2024/03/24 00:32:15;;;;;;;10.47;1.67;;;;;;;;;;5092252;28;20264;-79
2024/03/24 00:34:41;;;;;;;6.63;1.30;;;;;;;;;;5091950;28;20222;-79
2024/03/24 00:37:09;;;;;;;4.73;1.60;;;;;;;;;;5091712;28;20632;-78
2024/03/24 00:39:36;;;;;;;7.53;1.70;;;;;;;;;;5092212;28;20198;-79
2024/03/24 00:42:03;;;;;;;7.93;2.60;;;;;;;;;;5092432;28;20209;-79
2024/03/24 00:44:30;;;;;;;5.90;2.87;;;;;;;;;;5091858;28;20273;-78
2024/03/24 00:46:57;;;;;;;9.40;3.97;;;;;;;;;;5092072;28;20263;-79
2024/03/24 00:49:23;;;;;;;11.60;4.03;;;;;;;;;;5091712;28;20285;-80
2024/03/24 00:51:50;;;;;;;12.60;3.63;;;;;;;;;;5091107;28;20223;-79
2024/03/24 00:54:17;;;;;;;10.87;3.40;;;;;;;;;;5091564;28;20282;-79
2024/03/24 00:56:46;;;;;;;11.47;3.87;;;;;;;;;;5091353;28;20209;-79
2024/03/24 00:59:12;;;;;;;6.37;1.73;;;;;;;;;;5091719;28;20237;-79
2024/03/24 01:01:39;;;;;;;11.07;2.13;;;;;;;;;;5091956;28;20202;-79
2024/03/24 01:04:05;;;;;;;6.13;1.70;;;;;;;;;;5091552;28;20289;-79
2024/03/24 01:06:33;;;;;;;5.00;1.60;;;;;;;;;;5091144;28;20202;-80
2024/03/24 01:08:59;;;;;;;7.50;2.03;;;;;;;;;;5091734;28;20195;-79
2024/03/24 01:11:26;;;;;;;5.67;1.90;;;;;;;;;;5091494;28;20286;-79
2024/03/24 01:13:54;;;;;;;6.23;1.60;;;;;;;;;;5091330;28;20291;-80
2024/03/24 01:16:21;;;;;;;4.50;1.63;;;;;;;;;;5091896;28;20208;-79
2024/03/24 01:18:48;;;;;;;7.77;2.07;;;;;;;;;;5091715;28;20201;-79
2024/03/24 01:21:15;;;;;;;9.10;2.80;;;;;;;;;;5091146;28;20194;-79
2024/03/24 01:23:41;;;;;;;6.60;2.07;;;;;;;;;;5091248;28;20270;-80
2024/03/24 01:26:08;;;;;;;5.23;1.93;;;;;;;;;;5091293;28;20640;-79
2024/03/24 01:28:35;;;;;;;8.77;2.20;;;;;;;;;;5091512;28;20222;-78
2024/03/24 01:31:04;;;;;;;7.63;1.80;;;;;;;;;;5091268;28;20230;-79
2024/03/24 01:33:30;;;;;;;7.83;2.30;;;;;;;;;;5091160;28;20205;-79
2024/03/24 01:35:57;;;;;;;5.53;2.17;;;;;;;;;;5091464;28;20201;-79
2024/03/24 01:38:24;;;;;;;4.60;1.70;;;;;;;;;;5091152;28;20203;-79
2024/03/24 01:40:51;;;;;;;6.23;2.00;;;;;;;;;;5091286;28;20202;-79
2024/03/24 01:43:18;;;;;;;8.27;2.20;;;;;;;;;;5091457;28;20637;-79
2024/03/24 01:45:47;;;;;;;8.23;2.00;;;;;;;;;;5091531;28;20312;-79
2024/03/24 01:48:14;;;;;;;6.33;1.80;;;;;;;;;;5091083;28;20565;-79
2024/03/24 01:50:42;;;;;;;6.10;1.70;;;;;;;;;;5090634;28;21014;-79
2024/03/24 01:53:09;;;;;;;6.80;1.70;;;;;;;;;;5091139;28;20233;-78
2024/03/24 01:55:36;;;;;;;5.90;1.97;;;;;;;;;;5091099;28;20285;-79
2024/03/24 01:58:03;;;;;;;6.43;1.63;;;;;;;;;;5090998;28;20260;-79
2024/03/24 02:00:30;;;;;;;6.47;1.67;;;;;;;;;;5090855;28;20199;-79
2024/03/24 02:02:56;;;;;;;6.93;2.10;;;;;;;;;;5094641;28;20194;-79
2024/03/24 02:05:28;;;;;;;7.17;1.90;;;;;;;;;;5094477;28;20198;-80
2024/03/24 02:07:55;;;;;;;10.53;1.90;;;;;;;;;;5095207;28;20277;-78
2024/03/24 02:10:24;;;;;;;11.97;2.13;;;;;;;;;;5094748;28;20198;-79
2024/03/24 02:12:50;;;;;;;7.77;1.80;;;;;;;;;;5094614;28;20317;-79
2024/03/24 02:15:17;;;;;;;5.63;1.60;;;;;;;;;;5095225;28;20205;-79
2024/03/24 02:17:43;;;;;;;8.37;1.77;;;;;;;;;;5094642;28;20300;-79
2024/03/24 02:20:12;;;;;;;9.27;2.47;;;;;;;;;;5094766;28;20205;-78
2024/03/24 02:22:40;;;;;;;10.10;2.33;;;;;;;;;;5095169;28;20292;-80
2024/03/24 02:25:07;;;;;;;5.20;1.63;;;;;;;;;;5094733;28;20241;-79
2024/03/24 02:27:34;;;;;;;8.00;2.50;;;;;;;;;;5094674;28;20237;-79
2024/03/24 02:30:01;;;;;;;7.87;2.30;;;;;;;;;;5094225;28;20281;-79
2024/03/24 02:32:27;;;;;;;8.00;2.10;;;;;;;;;;5094209;28;20261;-79
2024/03/24 02:34:55;;;;;;;10.40;1.90;;;;;;;;;;5094580;28;20244;-79
2024/03/24 02:37:21;;;;;;;6.93;2.03;;;;;;;;;;5094606;28;20238;-78
2024/03/24 02:39:49;;;;;;;7.23;1.97;;;;;;;;;;5094726;28;20577;-79
2024/03/24 02:42:16;;;;;;;8.27;1.80;;;;;;;;;;5093800;28;20228;-79
2024/03/24 02:44:43;;;;;;;7.27;1.93;;;;;;;;;;5094325;28;20278;-79
2024/03/24 02:47:09;;;;;;;7.37;2.10;;;;;;;;;;5093809;28;20237;-79
2024/03/24 02:49:36;;;;;;;8.90;2.10;;;;;;;;;;5094330;28;20205;-78
2024/03/24 02:52:02;;;;;;;7.93;1.80;;;;;;;;;;5094341;28;20257;-79
2024/03/24 02:54:29;;;;;;;7.97;1.93;;;;;;;;;;5093983;28;20206;-79
2024/03/24 02:56:57;;;;;;;7.10;1.80;;;;;;;;;;5089219;28;20195;-79
2024/03/24 02:59:24;;;;;;;8.37;1.77;;;;;;;;;;5084900;28;20233;-79
2024/03/24 03:01:50;;;;;;;12.13;2.60;;;;;;;;;;5093544;28;20300;-79
2024/03/24 03:04:17;;;;;;;10.93;2.53;;;;;;;;;;5093776;28;20195;-79
2024/03/24 03:06:44;;;;;;;8.93;2.07;;;;;;;;;;5093773;28;20237;-79
2024/03/24 03:09:14;;;;;;;9.03;2.00;;;;;;;;;;5094352;28;20205;-79
2024/03/24 03:11:40;;;;;;;7.17;1.80;;;;;;;;;;5093802;28;20765;-79
2024/03/24 03:14:08;;;;;;;6.97;1.93;;;;;;;;;;5092843;28;20195;-79
2024/03/24 03:16:34;;;;;;;9.33;1.87;;;;;;;;;;5094672;28;20221;-79
2024/03/24 03:19:02;;;;;;;9.17;1.90;;;;;;;;;;5100356;28;20207;-79
2024/03/24 03:21:28;;;;;;;7.43;2.10;;;;;;;;;;5093213;28;20254;-79
2024/03/24 03:23:56;;;;;;;10.63;1.83;;;;;;;;;;5093014;28;20599;-79
2024/03/24 03:26:22;;;;;;;9.30;2.00;;;;;;;;;;5106375;28;20281;-79
2024/03/24 03:28:49;;;;;;;8.77;1.93;;;;;;;;;;5113820;28;20196;-79
2024/03/24 03:31:17;;;;;;;10.77;2.53;;;;;;;;;;5113884;28;20316;-79
2024/03/24 03:33:44;;;;;;;8.87;2.07;;;;;;;;;;5113649;28;20734;-79
2024/03/24 03:36:10;;;;;;;8.27;1.73;;;;;;;;;;5113798;28;20221;-79
2024/03/24 03:38:37;;;;;;;8.53;2.40;;;;;;;;;;5113692;28;20292;-80
2024/03/24 03:41:05;;;;;;;14.53;2.70;;;;;;;;;;5113689;28;20633;-79
2024/03/24 03:43:33;;;;;;;10.07;2.57;;;;;;;;;;5113349;28;20228;-79
2024/03/24 03:45:59;;;;;;;10.60;2.43;;;;;;;;;;5113073;27;20285;-79
2024/03/24 03:48:27;;;;;;;9.47;2.50;;;;;;;;;;5113272;28;20878;-78
2024/03/24 03:50:54;;;;;;;11.20;2.30;;;;;;;;;;5098291;28;20205;-80
2024/03/24 03:53:24;;;;;;;11.47;2.40;;;;;;;;;;5092884;28;20201;-79
2024/03/24 03:55:51;;;;;;;8.23;2.33;;;;;;;;;;5092883;28;20588;-79
2024/03/24 03:58:18;;;;;;;11.43;2.47;;;;;;;;;;5093064;28;20570;-79
2024/03/24 04:00:45;;;;;;;8.93;2.77;;;;;;;;;;5092256;28;20570;-80
2024/03/24 04:03:12;;;;;;;13.03;2.60;;;;;;;;;;5093305;28;20341;-79
2024/03/24 04:05:40;;;;;;;12.30;2.70;;;;;;;;;;5092623;28;20682;-79
2024/03/24 04:08:08;;;;;;;10.63;2.23;;;;;;;;;;5092870;28;20202;-79
2024/03/24 04:10:34;;;;;;;9.10;2.43;;;;;;;;;;5092229;28;20201;-79
2024/03/24 04:13:02;;;;;;;9.50;2.37;;;;;;;;;;5092209;28;20278;-79
2024/03/24 04:15:28;;;;;;;10.67;2.33;;;;;;;;;;5092529;28;20611;-79
2024/03/24 04:17:56;;;;;;;14.40;2.67;;;;;;;;;;5091157;28;20200;-78
2024/03/24 04:20:22;;;;;;;12.63;2.50;;;;;;;;;;5091647;28;20240;-79
2024/03/24 04:22:52;;;;;;;12.07;2.37;;;;;;;;;;5092426;28;20209;-79
2024/03/24 04:25:19;;;;;;;12.50;2.83;;;;;;;;;;5091228;28;20598;-79
2024/03/24 04:27:46;;;;;;;9.97;2.27;;;;;;;;;;5092409;28;20205;-79
2024/03/24 04:30:13;;;;;;;8.43;2.20;;;;;;;;;;5091849;28;20240;-79
2024/03/24 04:32:41;;;;;;;11.67;2.60;;;;;;;;;;5091565;28;20282;-79
2024/03/24 04:35:08;;;;;;;10.87;2.70;;;;;;;;;;5092419;28;20308;-79
2024/03/24 04:37:36;;;;;;;10.43;2.57;;;;;;;;;;5092229;28;20201;-79
2024/03/24 04:40:05;;;;;;;8.00;2.50;;;;;;;;;;5092146;28;20291;-79
2024/03/24 04:42:33;;;;;;;11.57;2.40;;;;;;;;;;5091763;28;20228;-79
2024/03/24 04:45:01;;;;;;;12.20;2.50;;;;;;;;;;5091615;28;20317;-79
2024/03/24 04:47:28;;;;;;;7.80;2.77;;;;;;;;;;5092036;28;20208;-79
2024/03/24 04:49:54;;;;;;;9.53;2.50;;;;;;;;;;5091458;28;20564;-79
2024/03/24 04:52:21;;;;;;;9.07;2.50;;;;;;;;;;5092529;28;20224;-79
2024/03/24 04:54:47;;;;;;;14.80;3.20;;;;;;;;;;5091982;28;20769;-78
2024/03/24 04:57:16;;;;;;;9.80;2.83;;;;;;;;;;5091870;28;20203;-79
2024/03/24 04:59:42;;;;;;;11.10;2.87;;;;;;;;;;5091589;28;20291;-79
2024/03/24 05:02:09;;;;;;;7.77;2.33;;;;;;;;;;5092072;28;20204;-79
2024/03/24 05:04:36;;;;;;;12.73;3.10;;;;;;;;;;5097396;28;20283;-79
2024/03/24 05:07:03;;;;;;;12.07;2.13;;;;;;;;;;5111398;28;20726;-78
2024/03/24 05:09:29;;;;;;;9.27;2.20;;;;;;;;;;5111872;28;20643;-80
2024/03/24 05:11:56;;;;;;;10.77;2.17;;;;;;;;;;5111351;28;20589;-79
2024/03/24 05:14:24;;;;;;;10.53;2.50;;;;;;;;;;5093897;28;20812;-79
2024/03/24 05:16:53;;;;;;;7.10;2.10;;;;;;;;;;5091316;28;20205;-79
2024/03/24 05:19:19;;;;;;;10.43;2.20;;;;;;;;;;5091487;28;20699;-79
2024/03/24 05:21:46;;;;;;;6.63;1.53;;;;;;;;;;5091213;28;20200;-79
2024/03/24 05:24:12;;;;;;;8.13;2.07;;;;;;;;;;5090774;28;20232;-79
2024/03/24 05:26:41;;;;;;;9.50;2.20;;;;;;;;;;5091045;28;20673;-79
2024/03/24 05:29:07;;;;;;;9.63;2.47;;;;;;;;;;5091471;28;20203;-78
2024/03/24 05:31:36;;;;;;;7.13;2.30;;;;;;;;;;5091548;28;20630;-79
2024/03/24 05:34:02;;;;;;;12.40;2.90;;;;;;;;;;5091555;28;20192;-79
2024/03/24 05:36:31;;;;;;;7.50;2.43;;;;;;;;;;5091154;28;20260;-78
2024/03/24 05:38:57;;;;;;;10.57;2.40;;;;;;;;;;5091407;28;20196;-79
2024/03/24 05:41:24;;;;;;;9.23;2.50;;;;;;;;;;5091085;28;20213;-79
2024/03/24 05:43:51;;;;;;;10.47;2.77;;;;;;;;;;5091171;28;20236;-79
2024/03/24 05:46:18;;;;;;;9.30;2.23;;;;;;;;;;5091559;28;20200;-79
2024/03/24 05:48:46;;;;;;;7.77;2.07;;;;;;;;;;5091098;28;20290;-78
2024/03/24 05:51:13;;;;;;;9.07;2.00;;;;;;;;;;5090737;28;20204;-79
2024/03/24 05:53:39;;;;;;;9.20;2.17;;;;;;;;;;5091401;28;20325;-79
2024/03/24 05:56:07;;;;;;;10.73;2.33;;;;;;;;;;5090794;28;20203;-78
2024/03/24 05:58:33;;;;;;;12.37;2.80;;;;;;;;;;5091628;28;20195;-78
2024/03/24 06:01:03;;;;;;;9.93;3.07;;;;;;;;;;5090898;28;20248;-79
2024/03/24 06:03:30;;;;;;;15.80;3.13;;;;;;;;;;5091012;28;20282;-79
2024/03/24 06:05:58;;;;;;;11.07;2.97;;;;;;;;;;5091178;28;20277;-79
2024/03/24 06:08:25;;;;;;;8.63;2.23;;;;;;;;;;5091003;28;20291;-79
2024/03/24 06:10:53;;;;;;;11.40;2.70;;;;;;;;;;5090401;28;20254;-79
2024/03/24 06:13:19;;;;;;;11.37;2.60;;;;;;;;;;5090760;28;20223;-79
2024/03/24 06:15:46;;;;;;;9.90;2.60;;;;;;;;;;5091430;28;20205;-79
2024/03/24 06:18:12;;;;;;;9.43;2.40;;;;;;;;;;5090962;28;20282;-79
2024/03/24 06:20:40;;;;;;;7.57;2.10;;;;;;;;;;5100661;28;20575;-79
2024/03/24 06:23:07;;;;;;;5.70;1.83;;;;;;;;;;5090890;28;20311;-79
2024/03/24 06:25:35;;;;;;;8.53;2.47;;;;;;;;;;5090013;28;20231;-78
2024/03/24 06:28:01;;;;;;;11.53;2.60;;;;;;;;;;5091032;28;20201;-79
2024/03/24 06:30:29;;;;;;;9.60;2.43;;;;;;;;;;5090673;28;20543;-79
2024/03/24 06:32:56;;;;;;;6.33;1.97;;;;;;;;;;5091205;28;20228;-79
2024/03/24 06:35:23;;;;;;;8.00;2.17;;;;;;;;;;5090511;28;20707;-79
2024/03/24 06:37:49;;;;;;;8.23;2.10;;;;;;;;;;5090804;28;20232;-79
2024/03/24 06:40:18;;;;;;;7.97;1.87;;;;;;;;;;5090648;28;20241;-79
2024/03/24 06:42:48;;;;;;;9.23;2.33;;;;;;;;;;5090513;28;20237;-79
2024/03/24 06:45:16;;;;;;;8.43;2.20;;;;;;;;;;5090967;28;20288;-79
2024/03/24 06:47:42;;;;;;;8.47;1.80;;;;;;;;;;5090849;28;20284;-79
2024/03/24 06:50:10;;;;;;;12.00;2.70;;;;;;;;;;5093761;28;20210;-79
2024/03/24 06:52:36;;;;;;;9.53;2.40;;;;;;;;;;5094026;28;20218;-80
2024/03/24 06:55:04;;;;;;;7.60;2.20;;;;;;;;;;5093634;28;20229;-79
2024/03/24 06:57:31;;;;;;;9.30;2.33;;;;;;;;;;5094104;28;20289;-79
2024/03/24 06:59:58;;;;;;;7.30;2.03;;;;;;;;;;5093995;28;20293;-80
2024/03/24 07:02:25;;;;;;;7.03;2.27;;;;;;;;;;5094515;28;20229;-80
2024/03/24 07:04:52;;;;;;;7.07;1.90;;;;;;;;;;5093809;28;20202;-79
2024/03/24 07:07:19;;;;;;;5.30;1.90;;;;;;;;;;5093467;28;20208;-80
2024/03/24 07:09:46;;;;;;;7.43;1.90;;;;;;;;;;5093818;28;20225;-79
2024/03/24 07:12:12;;;;;;;4.07;1.70;;;;;;;;;;5093771;28;20222;-80
2024/03/24 07:14:41;;;;;;;8.53;2.00;;;;;;;;;;5093913;28;20293;-79
2024/03/24 07:17:07;;;;;;;5.23;1.60;;;;;;;;;;5093612;28;20229;-80
2024/03/24 07:19:34;;;;;;;5.77;2.00;;;;;;;;;;5105416;28;20193;-80
2024/03/24 07:22:01;;;;;;;7.40;2.00;;;;;;;;;;5113898;28;20240;-80
2024/03/24 07:24:28;;;;;;;7.23;1.90;;;;;;;;;;5113245;27;20324;-80
2024/03/24 07:26:55;;;;;;;6.07;2.10;;;;;;;;;;5114331;28;20284;-80
2024/03/24 07:29:21;;;;;;;4.83;1.47;;;;;;;;;;5113751;28;20281;-79
2024/03/24 07:31:50;;;;;;;7.90;2.07;;;;;;;;;;5099406;28;20220;-80
2024/03/24 07:34:16;;;;;;;5.85;1.52;;;;;;;;;;5093352;28;20217;-80
2024/03/24 07:36:43;;;;;;;4.18;1.30;;;;;;;;;;5093588;28;20964;-80
2024/03/24 07:39:09;;;;;;;9.18;1.83;;;;;;;;;;5093476;28;20278;-80
2024/03/24 07:41:37;;;;;;;4.03;1.30;;;;;;;;;;5093694;28;20617;-80
2024/03/24 07:44:03;;;;;;;4.97;1.40;;;;;;;;;;5092755;28;20198;-80
2024/03/24 07:46:30;;;;;;;5.63;2.03;;;;;;;;;;5093158;28;20198;-81
2024/03/24 07:48:58;;;;;;;5.43;1.90;;;;;;;;;;5093527;28;20285;-80
2024/03/24 07:51:26;;;;;;;5.40;1.80;;;;;;;;;;5093014;28;20206;-79
2024/03/24 07:53:52;;;;;;;4.28;1.73;;;;;;;;;;5093393;28;20230;-81
2024/03/24 07:56:19;;;;;;;5.53;1.60;;;;;;;;;;5093034;28;20667;-80
2024/03/24 07:58:45;;;;;;;5.53;1.63;;;;;;;;;;5092969;28;20870;-79
2024/03/24 08:01:13;;;;;;;6.63;1.60;;;;;;;;;;5093145;28;20204;-80
2024/03/24 08:03:39;;;;;;;5.40;1.67;;;;;;;;;;5093123;28;20226;-81
2024/03/24 08:06:09;;;;;;;3.47;1.70;;;;;;;;;;5092375;28;20228;-81
2024/03/24 08:08:35;;;;;;;4.78;1.80;;;;;;;;;;5092888;28;20191;-81
2024/03/24 08:11:02;;;;;;;4.72;1.55;;;;;;;;;;5092972;28;20564;-84
2024/03/24 08:13:28;;;;;;;3.50;1.50;;;;;;;;;;5092873;28;20226;-84
2024/03/24 08:15:56;;;;;;;6.28;1.75;;;;;;;;;;5092830;28;20251;-83
2024/03/24 08:18:22;;;;;;;5.72;1.73;;;;;;;;;;5100522;28;20218;-85
2024/03/24 08:20:50;;;;;;;5.97;1.42;;;;;;;;;;5093199;28;20281;-84
2024/03/24 08:23:18;;;;;;;5.93;1.80;;;;;;;;;;5092815;28;20186;-86
2024/03/24 08:25:47;;;;;;;4.38;1.70;;;;;;;;;;5093031;28;20222;-84
2024/03/24 08:28:13;;;;;;;6.35;1.65;;;;;;;;;;5092285;28;20202;-84
2024/03/24 08:30:41;;;;;;;4.30;1.45;;;;;;;;;;5092602;28;20225;-84
2024/03/24 08:33:08;;;;;;;5.07;1.27;;;;;;;;;;5092685;28;20226;-84
2024/03/24 08:35:35;;;;;;;4.43;1.38;;;;;;;;;;5092258;28;20194;-83
2024/03/24 08:38:01;;;;;;;6.38;1.65;;;;;;;;;;5092136;28;20230;-81
2024/03/24 08:40:31;;;;;;;4.43;1.50;;;;;;;;;;5092339;28;20301;-81
2024/03/24 08:42:57;;;;;;;7.53;1.60;;;;;;;;;;5091157;28;20291;-82
2024/03/24 08:45:24;;;;;;;7.13;1.60;;;;;;;;;;5092065;28;20209;-83
2024/03/24 08:47:51;;;;;;;5.70;1.60;;;;;;;;;;5092064;28;20229;-80
2024/03/24 08:50:18;;;;;;;5.63;1.48;;;;;;;;;;5091825;28;20202;-85
2024/03/24 08:52:44;;;;;;;5.95;1.65;;;;;;;;;;5092592;28;20249;-84
2024/03/24 08:55:11;;;;;;;6.90;1.48;;;;;;;;;;5092117;28;20297;-84
2024/03/24 08:57:41;;;;;;;8.80;1.83;;;;;;;;;;5092213;28;20652;-84
2024/03/24 09:00:09;;;;;;;5.97;1.90;;;;;;;;;;5091980;28;20194;-82
2024/03/24 09:02:35;;;;;;;7.47;1.63;;;;;;;;;;5091962;28;20239;-83
2024/03/24 09:05:03;;;;;;;7.80;1.55;;;;;;;;;;5091265;28;20206;-84
2024/03/24 09:07:29;;;;;;;5.88;1.70;;;;;;;;;;5091902;28;20939;-84
2024/03/24 09:09:56;;;;;;;5.13;1.92;;;;;;;;;;5110940;28;20288;-84
2024/03/24 09:12:23;;;;;;;7.07;2.10;;;;;;;;;;5110283;28;20304;-84
2024/03/24 09:14:51;;;;;;;5.65;1.80;;;;;;;;;;5092332;28;20208;-83
2024/03/24 09:17:17;;;;;;;4.78;1.38;;;;;;;;;;5091917;28;20221;-84
2024/03/24 09:19:46;;;;;;;9.27;2.78;;;;;;;;;;5090544;28;20200;-84
2024/03/24 09:22:12;;;;;;;8.13;1.95;;;;;;;;;;5091982;28;20198;-84
2024/03/24 09:24:39;;;;;;;8.05;2.15;;;;;;;;;;5090981;28;20231;-84
2024/03/24 09:27:06;;;;;;;6.20;1.77;;;;;;;;;;5091868;28;20222;-83
2024/03/24 09:29:33;;;;;;;7.97;1.90;;;;;;;;;;5091473;28;20256;-84
2024/03/24 09:32:01;;;;;;;7.05;1.80;;;;;;;;;;5091346;28;20284;-84
2024/03/24 09:34:28;;;;;;;7.07;1.80;;;;;;;;;;5091477;28;20670;-83
2024/03/24 09:36:54;;;;;;;4.40;1.58;;;;;;;;;;5088906;28;20194;-83
2024/03/24 09:39:22;;;;;;;7.35;1.65;;;;;;;;;;5097638;28;20220;-82
2024/03/24 09:41:48;;;;;;;8.00;1.77;;;;;;;;;;5099903;28;20190;-82
2024/03/24 09:44:16;;;;;;;6.57;1.90;;;;;;;;;;5099167;28;20191;-85
2024/03/24 09:46:43;;;;;;;6.82;1.80;;;;;;;;;;5100872;28;20285;-82
2024/03/24 09:49:14;;;;;;;6.70;1.92;;;;;;;;;;5101518;28;20197;-83
2024/03/24 09:51:41;;;;;;;7.65;1.70;;;;;;;;;;5099558;28;20190;-80
2024/03/24 09:54:10;;;;;;;6.32;1.63;;;;;;;;;;5099505;28;20317;-80
2024/03/24 09:56:37;;;;;;;6.93;1.60;;;;;;;;;;5101830;28;20200;-79
2024/03/24 09:59:05;;;;;;;8.27;1.77;;;;;;;;;;5099704;28;20195;-80
2024/03/24 10:01:31;;;;;;;10.07;1.92;;;;;;;;;;5101997;28;20195;-81
2024/03/24 10:03:58;;;;;;;10.15;1.90;;;;;;;;;;5095640;28;20679;-81
2024/03/24 10:06:27;;;;;;;8.13;1.98;;;;;;;;;;5101193;28;20198;-81
2024/03/24 10:08:54;;;;;;;10.48;1.80;;;;;;;;;;5099318;28;20904;-81
2024/03/24 10:11:24;;;;;;;9.35;1.60;;;;;;;;;;5101888;28;20272;-80
2024/03/24 10:13:51;;;;;;;8.57;1.80;;;;;;;;;;5097142;28;20232;-82
2024/03/24 10:16:18;;;;;;;9.65;1.75;;;;;;;;;;5101159;28;20619;-79
2024/03/24 10:18:45;;;;;;;6.63;2.00;;;;;;;;;;5094449;28;20194;-81
2024/03/24 10:21:11;;;;;;;12.88;2.15;;;;;;;;;;5094511;28;20286;-83
2024/03/24 10:23:40;;;;;;;9.43;1.60;;;;;;;;;;5091948;28;20242;-82
2024/03/24 10:26:06;;;;;;;6.30;1.38;;;;;;;;;;5111981;28;20288;-82
2024/03/24 10:28:34;;;;;;;8.68;2.70;;;;;;;;;;5107816;28;20191;-82
2024/03/24 10:31:07;;;;;;;8.13;1.70;;;;;;;;;;5107528;28;20229;-81
2024/03/24 10:33:35;;;;;;;9.00;1.77;;;;;;;;;;5113339;28;20701;-81
2024/03/24 10:36:01;;;;;;;7.53;2.13;;;;;;;;;;5093036;28;20233;-83
2024/03/24 10:38:29;;;;;;;9.35;2.60;;;;;;;;;;5093496;28;20198;-85
2024/03/24 10:40:58;;;;;;;20.92;2.33;;;;;;;;;;5093975;28;20716;-82
2024/03/24 10:43:25;;;;;;;9.80;1.77;;;;;;;;;;5094569;28;20662;-82
2024/03/24 10:45:52;;;;;;;6.88;1.38;;;;;;;;;;5094879;28;20651;-85
2024/03/24 10:48:22;;;;;;;8.37;2.10;;;;;;;;;;5095417;28;20220;-87
2024/03/24 10:50:52;;;;;;;10.00;2.10;;;;;;;;;;5094966;28;20198;-83
2024/03/24 10:53:22;;;;;;;8.53;1.83;;;;;;;;;;5093955;28;20226;-83
2024/03/24 10:55:49;;;;;;;8.77;2.20;;;;;;;;;;5094051;28;20208;-83
2024/03/24 10:58:18;;;;;;;6.93;1.70;;;;;;;;;;5094156;28;20686;-83
2024/03/24 11:00:45;;;;;;;6.70;1.50;;;;;;;;;;5093512;28;20659;-83
2024/03/24 11:03:13;;;;;;;7.07;1.40;;;;;;;;;;5094116;28;20575;-82
2024/03/24 11:05:39;;;;;;;7.13;1.77;;;;;;;;;;5094394;28;20273;-84
2024/03/24 11:08:07;;;;;;;9.57;1.50;;;;;;;;;;5094110;28;20207;-88
2024/03/24 11:10:35;;;;;;;15.70;1.58;;;;;;;;;;5094638;28;20233;-87
2024/03/24 11:13:02;;;;;;;7.72;1.63;;;;;;;;;;5093215;28;20230;-85
2024/03/24 11:15:30;;;;;;;6.32;1.70;;;;;;;;;;5093828;28;20248;-83
2024/03/24 11:17:57;;;;;;;4.13;1.35;;;;;;;;;;5093373;28;20238;-81
2024/03/24 11:20:23;;;;;;;6.60;1.35;;;;;;;;;;5093746;28;20293;-81
2024/03/24 11:22:53;;;;;;;6.25;1.17;;;;;;;;;;5092453;28;20202;-81
2024/03/24 11:25:19;;;;;;;5.67;1.10;;;;;;;;;;5087598;28;20657;-83
2024/03/24 11:27:48;;;;;;;4.30;1.30;;;;;;;;;;5091350;28;20209;-83
2024/03/24 11:30:14;;;;;;;8.40;1.60;;;;;;;;;;5090232;28;20198;-84
2024/03/24 11:32:52;;;;;;;6.57;1.30;;;;;;;;;;5093399;28;20198;-83
2024/03/24 11:35:19;;;;;;;3.57;1.00;;;;;;;;;;5103487;28;20215;-84
2024/03/24 11:37:50;;;;;;;9.27;1.60;;;;;;;;;;5113527;28;20193;-83
2024/03/24 11:40:16;;;;;;;9.50;1.33;;;;;;;;;;5100851;28;20190;-83
2024/03/24 11:42:44;;;;;;;6.97;1.30;;;;;;;;;;5110263;28;20630;-84
2024/03/24 11:45:25;;;;;;;5.63;1.50;;;;;;;;;;5112238;28;20193;-83
2024/03/24 11:47:54;;;;;;;7.30;1.37;;;;;;;;;;5071835;28;20207;-83
2024/03/24 11:50:23;;;;;;;7.20;1.50;;;;;;;;;;5073150;28;20273;-83
2024/03/24 11:52:51;;;;;;;8.83;1.93;;;;;;;;;;5098045;28;20256;-84
2024/03/24 11:55:17;;;;;;;7.23;1.23;;;;;;;;;;5093140;28;20217;-85
2024/03/24 11:57:44;;;;;;;9.70;1.90;;;;;;;;;;5101370;28;20282;-84
2024/03/24 12:00:11;;;;;;;7.07;1.45;;;;;;;;;;5112430;28;20243;-82
2024/03/24 12:02:38;;;;;;;8.35;1.70;;;;;;;;;;5106840;28;20679;-81
2024/03/24 12:05:06;;;;;;;6.57;1.50;;;;;;;;;;5108012;28;20758;-81
2024/03/24 12:07:33;;;;;;;5.68;1.50;;;;;;;;;;5093246;28;20737;-82
2024/03/24 12:10:00;;;;;;;8.68;1.70;;;;;;;;;;5096161;28;20186;-82
2024/03/24 12:12:27;;;;;;;7.20;1.48;;;;;;;;;;5093525;28;20190;-86
2024/03/24 12:14:53;;;;;;;4.95;1.33;;;;;;;;;;5098650;28;20313;-85
2024/03/24 12:17:22;;;;;;;6.13;1.75;;;;;;;;;;5092764;28;20204;-85
2024/03/24 12:19:48;;;;;;;4.78;1.20;;;;;;;;;;5090731;28;20194;-85
2024/03/24 12:22:17;;;;;;;5.45;1.27;;;;;;;;;;5092932;28;20195;-87
2024/03/24 12:24:44;;;;;;;4.78;1.30;;;;;;;;;;5093834;28;20261;-87
2024/03/24 12:27:11;;;;;;;7.57;1.45;;;;;;;;;;5093213;28;20558;-87
2024/03/24 12:29:37;;;;;;;5.22;1.70;;;;;;;;;;5093617;28;20233;-87
2024/03/24 12:32:05;;;;;;;6.90;1.20;;;;;;;;;;5103972;28;20245;-87
2024/03/24 12:34:31;;;;;;;3.70;1.00;;;;;;;;;;5113530;28;20717;-88
2024/03/24 12:36:58;;;;;;;6.85;1.65;;;;;;;;;;5113744;28;20194;-86
2024/03/24 12:39:26;;;;;;;3.85;0.82;;;;;;;;;;5100315;28;20673;-88
2024/03/24 12:41:53;;;;;;;3.72;0.90;;;;;;;;;;5098189;28;20255;-88
2024/03/24 12:44:22;;;;;;;6.07;0.98;;;;;;;;;;5093074;28;20273;-89
2024/03/24 12:46:50;;;;;;;5.72;1.33;;;;;;;;;;5092418;28;20279;-88
2024/03/24 12:49:18;;;;;;;5.03;1.00;;;;;;;;;;5089033;28;20192;-89
2024/03/24 12:51:46;;;;;;;3.80;0.95;;;;;;;;;;5072234;28;20282;-88
2024/03/24 12:54:13;;;;;;;7.43;1.10;;;;;;;;;;5090525;28;20226;-89
2024/03/24 12:56:45;;;;;;;5.28;1.10;;;;;;;;;;5092518;28;20194;-89
2024/03/24 12:59:11;;;;;;;5.25;1.02;;;;;;;;;;5091414;28;20218;-88
2024/03/24 13:01:39;;;;;;;3.92;1.15;;;;;;;;;;5077201;28;20203;-88
2024/03/24 13:04:05;;;;;;;4.90;1.20;;;;;;;;;;5085394;28;20658;-90
2024/03/24 13:06:34;;;;;;;5.00;1.35;;;;;;;;;;5092478;28;20198;-89
2024/03/24 13:09:01;;;;;;;5.03;0.98;;;;;;;;;;5093011;28;20285;-90
2024/03/24 13:11:28;;;;;;;5.57;1.02;;;;;;;;;;5073344;28;20555;-89
2024/03/24 13:13:56;;;;;;;6.53;1.35;;;;;;;;;;5086421;28;20226;-88
2024/03/24 13:16:26;;;;;;;4.28;1.00;;;;;;;;;;5091348;28;20190;-89
2024/03/24 13:18:57;;;;;;;8.43;1.65;;;;;;;;;;5079893;28;20211;-87
2024/03/24 13:21:28;;;;;;;5.45;1.15;;;;;;;;;;5088121;28;20194;-88
2024/03/24 13:23:54;;;;;;;3.58;1.13;;;;;;;;;;5090050;28;20316;-88
2024/03/24 13:26:24;;;;;;;5.72;1.05;;;;;;;;;;5092189;28;20236;-87
2024/03/24 13:28:50;;;;;;;7.15;1.30;;;;;;;;;;5091917;28;20202;-88
2024/03/24 13:31:19;;;;;;;4.63;1.15;;;;;;;;;;5084300;28;20281;-89
2024/03/24 13:33:45;;;;;;;5.50;1.30;;;;;;;;;;5081806;28;20218;-88
2024/03/24 13:36:17;;;;;;;4.85;1.00;;;;;;;;;;5090389;28;20206;-87
2024/03/24 13:38:48;;;;;;;4.45;1.20;;;;;;;;;;5088489;28;20719;-88
2024/03/24 13:41:18;;;;;;;5.93;1.10;;;;;;;;;;5091249;28;20285;-89
2024/03/24 13:43:54;;;;;;;5.45;0.90;;;;;;;;;;5092661;28;20230;-87
2024/03/24 13:46:23;;;;;;;6.85;1.30;;;;;;;;;;5092697;28;20201;-87
2024/03/24 13:48:50;;;;;;;4.22;1.00;;;;;;;;;;5092884;28;20202;-89
2024/03/24 13:51:17;;;;;;;7.40;1.30;;;;;;;;;;5096577;28;20205;-87
2024/03/24 13:53:47;;;;;;;2.78;1.20;;;;;;;;;;5092554;28;20218;-88
2024/03/24 13:56:14;;;;;;;4.25;1.45;;;;;;;;;;5092506;28;20205;-88
2024/03/24 13:58:40;;;;;;;5.38;1.20;;;;;;;;;;5094682;28;20222;-88
2024/03/24 14:01:07;;;;;;;4.57;1.20;;;;;;;;;;5088317;28;20202;-88
2024/03/24 14:03:35;;;;;;;7.47;1.10;;;;;;;;;;5087646;28;20289;-87
2024/03/24 14:06:02;;;;;;;4.70;0.88;;;;;;;;;;5093899;28;20679;-83
2024/03/24 14:08:29;;;;;;;5.75;1.00;;;;;;;;;;5089966;28;20852;-82
2024/03/24 14:10:57;;;;;;;5.40;0.88;;;;;;;;;;5094094;28;20659;-81
2024/03/24 14:13:32;;;;;;;3.00;0.82;;;;;;;;;;5086437;28;20245;-82
2024/03/24 14:16:03;;;;;;;4.18;1.02;;;;;;;;;;5094001;28;20678;-81
2024/03/24 14:18:32;;;;;;;4.20;0.90;;;;;;;;;;5096492;28;20222;-81
2024/03/24 14:21:02;;;;;;;6.30;1.05;;;;;;;;;;5096279;28;20652;-79
2024/03/24 14:23:35;;;;;;;3.95;0.90;;;;;;;;;;5094225;28;20194;-80
2024/03/24 14:26:02;;;;;;;4.15;1.00;;;;;;;;;;5095199;28;20194;-80
2024/03/24 14:28:30;;;;;;;4.53;1.10;;;;;;;;;;5093896;28;20206;-80
2024/03/24 14:30:56;;;;;;;4.38;0.90;;;;;;;;;;5103255;28;20224;-81
2024/03/24 14:33:23;;;;;;;6.88;1.00;;;;;;;;;;5114439;28;20621;-79
2024/03/24 14:35:57;;;;;;;4.78;1.30;;;;;;;;;;5114913;28;20285;-81
2024/03/24 14:38:32;;;;;;;3.63;1.00;;;;;;;;;;5114684;28;20257;-80
2024/03/24 14:41:06;;;;;;;4.18;1.00;;;;;;;;;;5097103;28;20561;-81